KNRS/NRS METAR and TAF weather

Enter ICAO airport designator
Station Type Date Time Source
KNRS METAR 2019/06/26 19:56 UTC NOAA

KNRS 261956Z 26008KT 10SM SCT023 19/13 A3000 RMK AO2 SLP157 T01890133 $


Station Type Date Time Source
KNRS Decoded METAR 2019/06/26 19:56 UTC NOAA

IMPERIAL BEACH, NOLF, CA, United States (KNRS) 32-34N 117-07W 5M
Jun 26, 2019 - 03:56 PM EDT / 2019.06.26 1956 UTC
Wind: from the W (260 degrees) at 9 MPH (8 KT):0
Visibility: 10 mile(s):0
Sky conditions: partly cloudy
Temperature: 66.0 F (18.9 C)
Dew Point: 55.9 F (13.3 C)
Relative Humidity: 69%
Pressure (altimeter): 30 in. Hg (1015 hPa)
ob: KNRS 261956Z 26008KT 10SM SCT023 19/13 A3000 RMK AO2 SLP157 T01890133
cycle: 20

Station Type Date Time Source
KNRS TAF UTC NOAA

Error!

Example: see airport list